This is the latest recevied weather packets stored in our database for station/object AH6GR. If no packets are shown the sender has not sent any weather packets the latest 10 day(s).
| Time | Temp. | Humidity | Pressure | Rain* | Wind** | Luminosity | Snow |
|---|---|---|---|---|---|---|---|
| 1778091034 | 23.89° C | 77% | 1016.5 hPa | 0 mm | - | - | - |
| 1778090435 | 24.44° C | 77% | 1016.3 hPa | 0 mm | - | - | - |
| 1778090403 | 23.89° C | 77% | 1015.3 hPa | 0 mm | - | - | - |
| 1778089835 | 24.44° C | 76% | 1016.3 hPa | 0 mm | - | - | - |
| 1778089551 | 23.89° C | 77% | 1015.4 hPa | 0 mm | - | - | - |
| 1778089234 | 24.44° C | 78% | 1016.2 hPa | 0 mm | - | - | - |
| 1778088634 | 23.89° C | 77% | 1016 hPa | 0 mm | - | - | - |
| 1778088609 | 23.33° C | 78% | 1015 hPa | 0 mm | - | - | - |
| 1778088034 | 23.89° C | 76% | 1016 hPa | 0 mm | - | - | - |
| 1778087769 | 23.89° C | 74% | 1014.9 hPa | 0 mm | - | - | - |
| 1778087435 | 24.44° C | 78% | 1015.8 hPa | 0 mm | - | - | - |
| 1778086836 | 23.33° C | 84% | 1014.7 hPa | 0 mm | - | - | - |
| 1778086834 | 23.33° C | 85% | 1015.6 hPa | 0 mm | - | - | - |
| 1778086234 | 22.22° C | 86% | 1015.5 hPa | 0 mm | - | - | - |
| 1778085969 | 21.11° C | 87% | 1014.6 hPa | 0 mm | - | - | - |
| 1778085634 | 21.11° C | 87% | 1015.3 hPa | 0 mm | - | - | - |
| 1778085056 | 20.56° C | 87% | 1014.4 hPa | 0 mm | - | - | - |
| 1778085035 | 20.56° C | 87% | 1015.2 hPa | 0 mm | - | - | - |
| 1778084434 | 20.56° C | 86% | 1015.1 hPa | 0 mm | - | - | - |
| 1778084125 | 20° C | 86% | 1014.3 hPa | 0 mm | - | - | - |
| 1778083834 | 20.56° C | 86% | 1015 hPa | 0 mm | - | - | - |
| 1778083234 | 20.56° C | 86% | 1015 hPa | 0 mm | - | - | - |
| 1778083204 | 20° C | 86% | 1014.2 hPa | 0 mm | - | - | - |
| 1778082634 | 20.56° C | 87% | 1014.9 hPa | 0 mm | - | - | - |
| 1778082371 | 20° C | 87% | 1014.1 hPa | 0 mm | - | - | - |
* Rain latest hour (hover to see other rain measurements)
** Current wind speed in m/s (hover to see current wind gust speed)